In Rescue
 
Open Full Screen Window  High Contrast Mode
Wind Gusting 00 knots
12
November 29, 2022 8:50 AM EST
Weather Information
Wind Direction
  170 °
Wind Speed
  12 kt (14 mph)
Wind Gust
  00 kt (0 mph)
Altimeter
30.04 in
Visibility
9 SM
Temperature
07° C
45° F
Dewpoint
06° C
43° F
Humidity
93%
1hr Rain Fall
00.00 in.
24hr Rain Fall
00.00 in.
Sky Condition
Missing
VFR

METAR KEDJ 291350Z AUTO 17012KT 9SM 07/06 A3004 RMK A01

FAA Disclaimer: The data displayed is for advisory purposes only and is not to be used for flight planning or operations.
Missing Cloud Data